Koeln, Germany

12:00 PM CEST on May 25, 2015 (GMT +0200)
near Airport Cologne/Bonn | | Change Station
CLOSE
Current Station
Personal Weather Station
Location: Köln, NORDRHEIN-WESTFALEN
Elevation: 180 ft
Nearby Weather Stations

Elev 180 ft 50.88 °N, 7.10 °E | Updated 3 minutes ago

Overcast
Overcast
56.8 °F
Feels Like 56.8 °F
N
1.0
Wind Variable Wind from West
Gusts 2.0 mph

Today
High -- | Low -- °F
--% Chance of Precip.
Yesterday
High -- | Low -- °F
Precip. -- in
5:29 AM 9:27 PM
Waxing Crescent, 47% visible
Pressure 29.98 in
Visibility 4.3 miles
Clouds Few 900 ft
Mostly Cloudy 1200 ft
Dew Point 51 °F
Humidity 80%
Rainfall 0.00 in
Snow Depth Not available.
UV 0.0 out of 12
Pollen Not available.
Air Quality Not available.
Flu Activity Not available.
METAR EDDK 250950Z 19003KT 7000 -DZRA FEW009 BKN012 12/10 Q1015 TEMPO 4000 BKN009

More Conditions Fewer Conditions

Pressure 29.98 in
Visibility 4.3 miles
Clouds Few 900 ft
Mostly Cloudy 1200 ft
Dew Point 51 °F
Humidity 80%
Rainfall 0.00 in
Snow Depth Not available.
UV 0.0 out of 12
Pollen Not available.
Air Quality Not available.
Flu Activity Not available.
METAR EDDK 250950Z 19003KT 7000 -DZRA FEW009 BKN012 12/10 Q1015 TEMPO 4000 BKN009

More Conditions Fewer Conditions

10-Day Weather Forecast

Almanac

Astronomy

May. 25, 2015 Rise Set
Actual Time
Civil Twilight
Nautical Twilight
Astronomical Twilight
Moon
Length of Visible Light
Length of Day
Tomorrow will be .
, % of the Moon is Illuminated

Today's Extremes

Country Highs Country Lows

Community

WunderPhotos

Upload Photos

1,823,970 photos uploaded!

WunderBlogs® & News

Nearby

Air Quality

  Air Quality AQ Index Pollutant
Not available.

Snow Depth

Station Depth Elevation

Earthquake Activity

City Distance Mag. Time & Date
Minimum magnitude displayed is 2.5.

Coastal Water Temperatures

Place Temperature

Stations

Nearby Weather Stations

Station Location Temp. Windchill Dew Point Humidity Wind Precip. Elev Updated Type